<?xml version="1.0" encoding="UTF-8" standalone="no" ?>
<gpx xmlns="http://www.topografix.com/GPX/1/1" xmlns:xsi="http://www.w3.org/2001/XMLSchema-instance" xsi:schemaLocation="http://www.topografix.com/GPX/1/1 http://www.topografix.com/GPX/1/1/gpx.xsd" version="1.1" creator="VisuGPX - https://www.visugpx.com">
  <metadata>
    <name>Rando AN-Ath Vosges 02_08_2016 Yvan</name>
    <desc><![CDATA[Les Vosges 2016
Rando du 02/08/2016 guide Yvan]]></desc>
  </metadata>
  <trk>
    <name><![CDATA[ACTIVE LOG]]></name>
    <trkseg>
      <trkpt lat="47.78114" lon="7.05965">
        <ele>496.178</ele>
        <time>2016-02-08T08:11:20.000Z</time>
      </trkpt>
      <trkpt lat="47.78101" lon="7.05978">
        <ele>465.896</ele>
        <time>2016-02-08T08:11:36.000Z</time>
      </trkpt>
      <trkpt lat="47.78089" lon="7.05976">
        <ele>465.416</ele>
        <time>2016-02-08T08:11:54.000Z</time>
      </trkpt>
      <trkpt lat="47.78077" lon="7.05947">
        <ele>465.416</ele>
        <time>2016-02-08T08:12:21.000Z</time>
      </trkpt>
      <trkpt lat="47.78065" lon="7.05933">
        <ele>465.416</ele>
        <time>2016-02-08T08:12:32.000Z</time>
      </trkpt>
      <trkpt lat="47.78053" lon="7.0593">
        <ele>460.609</ele>
        <time>2016-02-08T08:12:40.000Z</time>
      </trkpt>
      <trkpt lat="47.78041" lon="7.05929">
        <ele>456.764</ele>
        <time>2016-02-08T08:12:49.000Z</time>
      </trkpt>
      <trkpt lat="47.7802" lon="7.05933">
        <ele>450.996</ele>
        <time>2016-02-08T08:13:08.000Z</time>
      </trkpt>
      <trkpt lat="47.77992" lon="7.05938">
        <ele>446.189</ele>
        <time>2016-02-08T08:13:36.000Z</time>
      </trkpt>
      <trkpt lat="47.77967" lon="7.05941">
        <ele>444.266</ele>
        <time>2016-02-08T08:13:58.000Z</time>
      </trkpt>
      <trkpt lat="47.77952" lon="7.05938">
        <ele>442.344</ele>
        <time>2016-02-08T08:14:12.000Z</time>
      </trkpt>
      <trkpt lat="47.77941" lon="7.0594">
        <ele>442.344</ele>
        <time>2016-02-08T08:14:21.000Z</time>
      </trkpt>
      <trkpt lat="47.77932" lon="7.05944">
        <ele>431.769</ele>
        <time>2016-02-08T08:14:56.000Z</time>
      </trkpt>
      <trkpt lat="47.77907" lon="7.05925">
        <ele>431.769</ele>
        <time>2016-02-08T08:16:18.000Z</time>
      </trkpt>
      <trkpt lat="47.77892" lon="7.05905">
        <ele>431.769</ele>
        <time>2016-02-08T08:16:41.000Z</time>
      </trkpt>
      <trkpt lat="47.77884" lon="7.05902">
        <ele>424.079</ele>
        <time>2016-02-08T08:16:55.000Z</time>
      </trkpt>
      <trkpt lat="47.77839" lon="7.05887">
        <ele>419.753</ele>
        <time>2016-02-08T08:17:48.000Z</time>
      </trkpt>
      <trkpt lat="47.77806" lon="7.05858">
        <ele>419.272</ele>
        <time>2016-02-08T08:18:34.000Z</time>
      </trkpt>
      <trkpt lat="47.77786" lon="7.05863">
        <ele>409.659</ele>
        <time>2016-02-08T08:18:59.000Z</time>
      </trkpt>
      <trkpt lat="47.77765" lon="7.05858">
        <ele>407.256</ele>
        <time>2016-02-08T08:19:20.000Z</time>
      </trkpt>
      <trkpt lat="47.77729" lon="7.05864">
        <ele>400.046</ele>
        <time>2016-02-08T08:19:54.000Z</time>
      </trkpt>
      <trkpt lat="47.77719" lon="7.05868">
        <ele>393.317</ele>
        <time>2016-02-08T08:20:09.000Z</time>
      </trkpt>
      <trkpt lat="47.77677" lon="7.05878">
        <ele>390.913</ele>
        <time>2016-02-08T08:21:06.000Z</time>
      </trkpt>
      <trkpt lat="47.77665" lon="7.05875">
        <ele>390.913</ele>
        <time>2016-02-08T08:21:20.000Z</time>
      </trkpt>
      <trkpt lat="47.77654" lon="7.05868">
        <ele>390.913</ele>
        <time>2016-02-08T08:21:33.000Z</time>
      </trkpt>
      <trkpt lat="47.77613" lon="7.05806">
        <ele>389.471</ele>
        <time>2016-02-08T08:23:24.000Z</time>
      </trkpt>
      <trkpt lat="47.7761" lon="7.05796">
        <ele>383.223</ele>
        <time>2016-02-08T08:23:37.000Z</time>
      </trkpt>
      <trkpt lat="47.77614" lon="7.05793">
        <ele>380.819</ele>
        <time>2016-02-08T08:23:51.000Z</time>
      </trkpt>
      <trkpt lat="47.77622" lon="7.05784">
        <ele>380.819</ele>
        <time>2016-02-08T08:24:01.000Z</time>
      </trkpt>
      <trkpt lat="47.77637" lon="7.05774">
        <ele>380.819</ele>
        <time>2016-02-08T08:24:18.000Z</time>
      </trkpt>
      <trkpt lat="47.77648" lon="7.05757">
        <ele>384.665</ele>
        <time>2016-02-08T08:24:32.000Z</time>
      </trkpt>
      <trkpt lat="47.77658" lon="7.05741">
        <ele>386.587</ele>
        <time>2016-02-08T08:24:46.000Z</time>
      </trkpt>
      <trkpt lat="47.77666" lon="7.0572">
        <ele>387.068</ele>
        <time>2016-02-08T08:25:02.000Z</time>
      </trkpt>
      <trkpt lat="47.77671" lon="7.05699">
        <ele>389.952</ele>
        <time>2016-02-08T08:25:17.000Z</time>
      </trkpt>
      <trkpt lat="47.77672" lon="7.05678">
        <ele>389.952</ele>
        <time>2016-02-08T08:25:38.000Z</time>
      </trkpt>
      <trkpt lat="47.77658" lon="7.05648">
        <ele>389.952</ele>
        <time>2016-02-08T08:26:04.000Z</time>
      </trkpt>
      <trkpt lat="47.77652" lon="7.05627">
        <ele>393.317</ele>
        <time>2016-02-08T08:26:18.000Z</time>
      </trkpt>
      <trkpt lat="47.7764" lon="7.0561">
        <ele>393.317</ele>
        <time>2016-02-08T08:26:34.000Z</time>
      </trkpt>
      <trkpt lat="47.77629" lon="7.05628">
        <ele>394.278</ele>
        <time>2016-02-08T08:26:53.000Z</time>
      </trkpt>
      <trkpt lat="47.77614" lon="7.05645">
        <ele>394.278</ele>
        <time>2016-02-08T08:27:20.000Z</time>
      </trkpt>
      <trkpt lat="47.77601" lon="7.05629">
        <ele>396.201</ele>
        <time>2016-02-08T08:27:44.000Z</time>
      </trkpt>
      <trkpt lat="47.77579" lon="7.0554">
        <ele>401.488</ele>
        <time>2016-02-08T08:29:15.000Z</time>
      </trkpt>
      <trkpt lat="47.77578" lon="7.05531">
        <ele>403.891</ele>
        <time>2016-02-08T08:29:34.000Z</time>
      </trkpt>
      <trkpt lat="47.7756" lon="7.05503">
        <ele>405.814</ele>
        <time>2016-02-08T08:29:58.000Z</time>
      </trkpt>
      <trkpt lat="47.77548" lon="7.05489">
        <ele>405.814</ele>
        <time>2016-02-08T08:30:13.000Z</time>
      </trkpt>
      <trkpt lat="47.77543" lon="7.05473">
        <ele>405.814</ele>
        <time>2016-02-08T08:30:45.000Z</time>
      </trkpt>
      <trkpt lat="47.77546" lon="7.05448">
        <ele>396.201</ele>
        <time>2016-02-08T08:31:10.000Z</time>
      </trkpt>
      <trkpt lat="47.77548" lon="7.05402">
        <ele>396.201</ele>
        <time>2016-02-08T08:31:45.000Z</time>
      </trkpt>
      <trkpt lat="47.77544" lon="7.0536">
        <ele>401.488</ele>
        <time>2016-02-08T08:32:13.000Z</time>
      </trkpt>
      <trkpt lat="47.77542" lon="7.05339">
        <ele>409.178</ele>
        <time>2016-02-08T08:32:27.000Z</time>
      </trkpt>
      <trkpt lat="47.77526" lon="7.0523">
        <ele>419.753</ele>
        <time>2016-02-08T08:33:53.000Z</time>
      </trkpt>
      <trkpt lat="47.77525" lon="7.05208">
        <ele>426.482</ele>
        <time>2016-02-08T08:34:08.000Z</time>
      </trkpt>
      <trkpt lat="47.77524" lon="7.05192">
        <ele>426.482</ele>
        <time>2016-02-08T08:34:22.000Z</time>
      </trkpt>
      <trkpt lat="47.77521" lon="7.05177">
        <ele>426.482</ele>
        <time>2016-02-08T08:34:36.000Z</time>
      </trkpt>
      <trkpt lat="47.77525" lon="7.05119">
        <ele>425.04</ele>
        <time>2016-02-08T08:35:24.000Z</time>
      </trkpt>
      <trkpt lat="47.77538" lon="7.05069">
        <ele>425.04</ele>
        <time>2016-02-08T08:36:07.000Z</time>
      </trkpt>
      <trkpt lat="47.77543" lon="7.04983">
        <ele>433.211</ele>
        <time>2016-02-08T08:37:11.000Z</time>
      </trkpt>
      <trkpt lat="47.77536" lon="7.04942">
        <ele>437.057</ele>
        <time>2016-02-08T08:37:39.000Z</time>
      </trkpt>
      <trkpt lat="47.77529" lon="7.04906">
        <ele>440.902</ele>
        <time>2016-02-08T08:38:03.000Z</time>
      </trkpt>
      <trkpt lat="47.77526" lon="7.0488">
        <ele>444.266</ele>
        <time>2016-02-08T08:38:19.000Z</time>
      </trkpt>
      <trkpt lat="47.77528" lon="7.04869">
        <ele>455.322</ele>
        <time>2016-02-08T08:39:44.000Z</time>
      </trkpt>
      <trkpt lat="47.77527" lon="7.04866">
        <ele>455.322</ele>
        <time>2016-02-08T08:40:05.000Z</time>
      </trkpt>
      <trkpt lat="47.77524" lon="7.04766">
        <ele>455.322</ele>
        <time>2016-02-08T08:42:07.000Z</time>
      </trkpt>
      <trkpt lat="47.77551" lon="7.04619">
        <ele>461.089</ele>
        <time>2016-02-08T08:43:59.000Z</time>
      </trkpt>
      <trkpt lat="47.77563" lon="7.04577">
        <ele>462.531</ele>
        <time>2016-02-08T08:44:30.000Z</time>
      </trkpt>
      <trkpt lat="47.77563" lon="7.04561">
        <ele>463.493</ele>
        <time>2016-02-08T08:44:41.000Z</time>
      </trkpt>
      <trkpt lat="47.77571" lon="7.0451">
        <ele>463.493</ele>
        <time>2016-02-08T08:45:14.000Z</time>
      </trkpt>
      <trkpt lat="47.77578" lon="7.04498">
        <ele>463.973</ele>
        <time>2016-02-08T08:45:27.000Z</time>
      </trkpt>
      <trkpt lat="47.77592" lon="7.04459">
        <ele>464.935</ele>
        <time>2016-02-08T08:46:06.000Z</time>
      </trkpt>
      <trkpt lat="47.77612" lon="7.04422">
        <ele>468.78</ele>
        <time>2016-02-08T08:46:36.000Z</time>
      </trkpt>
      <trkpt lat="47.7773" lon="7.04262">
        <ele>474.548</ele>
        <time>2016-02-08T08:49:18.000Z</time>
      </trkpt>
      <trkpt lat="47.77739" lon="7.0425">
        <ele>478.874</ele>
        <time>2016-02-08T08:49:28.000Z</time>
      </trkpt>
      <trkpt lat="47.77784" lon="7.04201">
        <ele>481.277</ele>
        <time>2016-02-08T08:50:35.000Z</time>
      </trkpt>
      <trkpt lat="47.77801" lon="7.04193">
        <ele>488.968</ele>
        <time>2016-02-08T08:50:49.000Z</time>
      </trkpt>
      <trkpt lat="47.77824" lon="7.04184">
        <ele>493.774</ele>
        <time>2016-02-08T08:51:11.000Z</time>
      </trkpt>
      <trkpt lat="47.77833" lon="7.04176">
        <ele>496.178</ele>
        <time>2016-02-08T08:51:21.000Z</time>
      </trkpt>
      <trkpt lat="47.77845" lon="7.04175">
        <ele>496.178</ele>
        <time>2016-02-08T08:51:34.000Z</time>
      </trkpt>
      <trkpt lat="47.7786" lon="7.04162">
        <ele>496.178</ele>
        <time>2016-02-08T08:51:54.000Z</time>
      </trkpt>
      <trkpt lat="47.77891" lon="7.04102">
        <ele>494.255</ele>
        <time>2016-02-08T08:53:04.000Z</time>
      </trkpt>
      <trkpt lat="47.77888" lon="7.04054">
        <ele>494.255</ele>
        <time>2016-02-08T08:53:55.000Z</time>
      </trkpt>
      <trkpt lat="47.77891" lon="7.04027">
        <ele>500.504</ele>
        <time>2016-02-08T08:54:22.000Z</time>
      </trkpt>
      <trkpt lat="47.779" lon="7.04004">
        <ele>504.829</ele>
        <time>2016-02-08T08:54:44.000Z</time>
      </trkpt>
      <trkpt lat="47.77913" lon="7.03975">
        <ele>506.752</ele>
        <time>2016-02-08T08:55:08.000Z</time>
      </trkpt>
      <trkpt lat="47.77916" lon="7.03959">
        <ele>506.752</ele>
        <time>2016-02-08T08:55:21.000Z</time>
      </trkpt>
      <trkpt lat="47.77915" lon="7.03939">
        <ele>507.233</ele>
        <time>2016-02-08T08:55:34.000Z</time>
      </trkpt>
      <trkpt lat="47.77934" lon="7.03893">
        <ele>508.194</ele>
        <time>2016-02-08T08:56:09.000Z</time>
      </trkpt>
      <trkpt lat="47.77945" lon="7.03888">
        <ele>515.404</ele>
        <time>2016-02-08T08:56:19.000Z</time>
      </trkpt>
      <trkpt lat="47.77962" lon="7.03863">
        <ele>517.327</ele>
        <time>2016-02-08T08:56:47.000Z</time>
      </trkpt>
      <trkpt lat="47.77966" lon="7.0385">
        <ele>517.327</ele>
        <time>2016-02-08T08:57:00.000Z</time>
      </trkpt>
      <trkpt lat="47.7797" lon="7.03776">
        <ele>521.172</ele>
        <time>2016-02-08T08:57:57.000Z</time>
      </trkpt>
      <trkpt lat="47.77975" lon="7.03762">
        <ele>521.653</ele>
        <time>2016-02-08T08:58:08.000Z</time>
      </trkpt>
      <trkpt lat="47.77974" lon="7.03746">
        <ele>521.653</ele>
        <time>2016-02-08T08:58:19.000Z</time>
      </trkpt>
      <trkpt lat="47.77969" lon="7.03713">
        <ele>521.653</ele>
        <time>2016-02-08T08:58:45.000Z</time>
      </trkpt>
      <trkpt lat="47.77969" lon="7.03702">
        <ele>525.017</ele>
        <time>2016-02-08T08:58:56.000Z</time>
      </trkpt>
      <trkpt lat="47.77969" lon="7.0367">
        <ele>532.227</ele>
        <time>2016-02-08T08:59:31.000Z</time>
      </trkpt>
      <trkpt lat="47.77963" lon="7.03668">
        <ele>542.802</ele>
        <time>2016-02-08T08:59:48.000Z</time>
      </trkpt>
      <trkpt lat="47.77966" lon="7.03656">
        <ele>544.244</ele>
        <time>2016-02-08T09:00:02.000Z</time>
      </trkpt>
      <trkpt lat="47.77974" lon="7.03621">
        <ele>544.244</ele>
        <time>2016-02-08T09:00:25.000Z</time>
      </trkpt>
      <trkpt lat="47.77971" lon="7.03569">
        <ele>537.995</ele>
        <time>2016-02-08T09:00:59.000Z</time>
      </trkpt>
      <trkpt lat="47.77971" lon="7.03554">
        <ele>537.995</ele>
        <time>2016-02-08T09:01:08.000Z</time>
      </trkpt>
      <trkpt lat="47.77958" lon="7.03495">
        <ele>544.244</ele>
        <time>2016-02-08T09:01:51.000Z</time>
      </trkpt>
      <trkpt lat="47.77959" lon="7.03487">
        <ele>559.625</ele>
        <time>2016-02-08T09:02:40.000Z</time>
      </trkpt>
      <trkpt lat="47.77956" lon="7.0347">
        <ele>561.547</ele>
        <time>2016-02-08T09:03:49.000Z</time>
      </trkpt>
      <trkpt lat="47.77961" lon="7.03454">
        <ele>561.547</ele>
        <time>2016-02-08T09:03:58.000Z</time>
      </trkpt>
      <trkpt lat="47.77978" lon="7.03441">
        <ele>561.547</ele>
        <time>2016-02-08T09:04:16.000Z</time>
      </trkpt>
      <trkpt lat="47.77978" lon="7.03442">
        <ele>550.011</ele>
        <time>2016-02-08T09:04:37.000Z</time>
      </trkpt>
      <trkpt lat="47.77976" lon="7.03462">
        <ele>542.321</ele>
        <time>2016-02-08T09:04:56.000Z</time>
      </trkpt>
      <trkpt lat="47.7798" lon="7.03469">
        <ele>542.321</ele>
        <time>2016-02-08T09:05:03.000Z</time>
      </trkpt>
      <trkpt lat="47.77995" lon="7.03498">
        <ele>542.321</ele>
        <time>2016-02-08T09:05:32.000Z</time>
      </trkpt>
      <trkpt lat="47.78035" lon="7.0354">
        <ele>549.05</ele>
        <time>2016-02-08T09:06:20.000Z</time>
      </trkpt>
      <trkpt lat="47.78044" lon="7.03551">
        <ele>549.05</ele>
        <time>2016-02-08T09:06:32.000Z</time>
      </trkpt>
      <trkpt lat="47.78054" lon="7.03558">
        <ele>549.05</ele>
        <time>2016-02-08T09:06:42.000Z</time>
      </trkpt>
      <trkpt lat="47.78075" lon="7.03561">
        <ele>550.011</ele>
        <time>2016-02-08T09:07:03.000Z</time>
      </trkpt>
      <trkpt lat="47.7809" lon="7.03555">
        <ele>550.011</ele>
        <time>2016-02-08T09:07:15.000Z</time>
      </trkpt>
      <trkpt lat="47.78107" lon="7.03543">
        <ele>550.011</ele>
        <time>2016-02-08T09:07:35.000Z</time>
      </trkpt>
      <trkpt lat="47.78113" lon="7.03531">
        <ele>551.453</ele>
        <time>2016-02-08T09:07:47.000Z</time>
      </trkpt>
      <trkpt lat="47.78166" lon="7.03484">
        <ele>557.221</ele>
        <time>2016-02-08T09:08:54.000Z</time>
      </trkpt>
      <trkpt lat="47.78174" lon="7.0348">
        <ele>562.028</ele>
        <time>2016-02-08T09:09:03.000Z</time>
      </trkpt>
      <trkpt lat="47.78185" lon="7.03476">
        <ele>565.393</ele>
        <time>2016-02-08T09:09:13.000Z</time>
      </trkpt>
      <trkpt lat="47.78207" lon="7.03472">
        <ele>568.757</ele>
        <time>2016-02-08T09:09:35.000Z</time>
      </trkpt>
      <trkpt lat="47.78219" lon="7.03467">
        <ele>568.757</ele>
        <time>2016-02-08T09:09:48.000Z</time>
      </trkpt>
      <trkpt lat="47.78228" lon="7.03461">
        <ele>568.757</ele>
        <time>2016-02-08T09:09:58.000Z</time>
      </trkpt>
      <trkpt lat="47.7825" lon="7.03433">
        <ele>568.757</ele>
        <time>2016-02-08T09:10:31.000Z</time>
      </trkpt>
      <trkpt lat="47.78267" lon="7.03419">
        <ele>568.276</ele>
        <time>2016-02-08T09:10:50.000Z</time>
      </trkpt>
      <trkpt lat="47.7827" lon="7.03408">
        <ele>560.586</ele>
        <time>2016-02-08T09:11:03.000Z</time>
      </trkpt>
      <trkpt lat="47.78283" lon="7.034">
        <ele>559.144</ele>
        <time>2016-02-08T09:11:16.000Z</time>
      </trkpt>
      <trkpt lat="47.78297" lon="7.03389">
        <ele>557.702</ele>
        <time>2016-02-08T09:11:30.000Z</time>
      </trkpt>
      <trkpt lat="47.78306" lon="7.0338">
        <ele>556.26</ele>
        <time>2016-02-08T09:11:43.000Z</time>
      </trkpt>
      <trkpt lat="47.78351" lon="7.0338">
        <ele>556.26</ele>
        <time>2016-02-08T09:12:38.000Z</time>
      </trkpt>
      <trkpt lat="47.78363" lon="7.03393">
        <ele>562.989</ele>
        <time>2016-02-08T09:13:00.000Z</time>
      </trkpt>
      <trkpt lat="47.78381" lon="7.03395">
        <ele>567.315</ele>
        <time>2016-02-08T09:13:13.000Z</time>
      </trkpt>
      <trkpt lat="47.78393" lon="7.03403">
        <ele>570.68</ele>
        <time>2016-02-08T09:13:23.000Z</time>
      </trkpt>
      <trkpt lat="47.78403" lon="7.03407">
        <ele>570.68</ele>
        <time>2016-02-08T09:13:35.000Z</time>
      </trkpt>
      <trkpt lat="47.78418" lon="7.03404">
        <ele>570.68</ele>
        <time>2016-02-08T09:13:48.000Z</time>
      </trkpt>
      <trkpt lat="47.78433" lon="7.03391">
        <ele>570.68</ele>
        <time>2016-02-08T09:13:59.000Z</time>
      </trkpt>
      <trkpt lat="47.78444" lon="7.03377">
        <ele>570.68</ele>
        <time>2016-02-08T09:14:09.000Z</time>
      </trkpt>
      <trkpt lat="47.78454" lon="7.03334">
        <ele>570.68</ele>
        <time>2016-02-08T09:14:42.000Z</time>
      </trkpt>
      <trkpt lat="47.78455" lon="7.03318">
        <ele>576.928</ele>
        <time>2016-02-08T09:14:52.000Z</time>
      </trkpt>
      <trkpt lat="47.78463" lon="7.03287">
        <ele>582.216</ele>
        <time>2016-02-08T09:15:19.000Z</time>
      </trkpt>
      <trkpt lat="47.78475" lon="7.03252">
        <ele>587.503</ele>
        <time>2016-02-08T09:15:42.000Z</time>
      </trkpt>
      <trkpt lat="47.78485" lon="7.03214">
        <ele>597.116</ele>
        <time>2016-02-08T09:16:12.000Z</time>
      </trkpt>
      <trkpt lat="47.78488" lon="7.03203">
        <ele>597.116</ele>
        <time>2016-02-08T09:16:20.000Z</time>
      </trkpt>
      <trkpt lat="47.78489" lon="7.03187">
        <ele>597.116</ele>
        <time>2016-02-08T09:16:29.000Z</time>
      </trkpt>
      <trkpt lat="47.78508" lon="7.03156">
        <ele>600</ele>
        <time>2016-02-08T09:16:57.000Z</time>
      </trkpt>
      <trkpt lat="47.78523" lon="7.03107">
        <ele>600</ele>
        <time>2016-02-08T09:17:33.000Z</time>
      </trkpt>
      <trkpt lat="47.78523" lon="7.03087">
        <ele>600</ele>
        <time>2016-02-08T09:17:41.000Z</time>
      </trkpt>
      <trkpt lat="47.78536" lon="7.03085">
        <ele>593.751</ele>
        <time>2016-02-08T09:17:53.000Z</time>
      </trkpt>
      <trkpt lat="47.78542" lon="7.03086">
        <ele>585.58</ele>
        <time>2016-02-08T09:18:02.000Z</time>
      </trkpt>
      <trkpt lat="47.78583" lon="7.03098">
        <ele>585.58</ele>
        <time>2016-02-08T09:18:37.000Z</time>
      </trkpt>
      <trkpt lat="47.78596" lon="7.03088">
        <ele>585.58</ele>
        <time>2016-02-08T09:18:55.000Z</time>
      </trkpt>
      <trkpt lat="47.78614" lon="7.03042">
        <ele>600</ele>
        <time>2016-02-08T09:19:29.000Z</time>
      </trkpt>
      <trkpt lat="47.78615" lon="7.03038">
        <ele>603.845</ele>
        <time>2016-02-08T09:19:33.000Z</time>
      </trkpt>
      <trkpt lat="47.78622" lon="7.03029">
        <ele>608.652</ele>
        <time>2016-02-08T09:19:43.000Z</time>
      </trkpt>
      <trkpt lat="47.78659" lon="7.02887">
        <ele>608.652</ele>
        <time>2016-02-08T09:21:37.000Z</time>
      </trkpt>
      <trkpt lat="47.78653" lon="7.02833">
        <ele>607.21</ele>
        <time>2016-02-08T09:22:20.000Z</time>
      </trkpt>
      <trkpt lat="47.78648" lon="7.02816">
        <ele>607.21</ele>
        <time>2016-02-08T09:22:30.000Z</time>
      </trkpt>
      <trkpt lat="47.78646" lon="7.02793">
        <ele>605.287</ele>
        <time>2016-02-08T09:22:45.000Z</time>
      </trkpt>
      <trkpt lat="47.78632" lon="7.02766">
        <ele>605.287</ele>
        <time>2016-02-08T09:23:06.000Z</time>
      </trkpt>
      <trkpt lat="47.78653" lon="7.02724">
        <ele>605.287</ele>
        <time>2016-02-08T09:23:51.000Z</time>
      </trkpt>
      <trkpt lat="47.78656" lon="7.02716">
        <ele>601.923</ele>
        <time>2016-02-08T09:24:04.000Z</time>
      </trkpt>
      <trkpt lat="47.78652" lon="7.02709">
        <ele>601.923</ele>
        <time>2016-02-08T09:24:12.000Z</time>
      </trkpt>
      <trkpt lat="47.78675" lon="7.02707">
        <ele>601.923</ele>
        <time>2016-02-08T09:24:23.000Z</time>
      </trkpt>
      <trkpt lat="47.78687" lon="7.027">
        <ele>602.403</ele>
        <time>2016-02-08T09:24:33.000Z</time>
      </trkpt>
      <trkpt lat="47.78691" lon="7.02687">
        <ele>606.729</ele>
        <time>2016-02-08T09:24:49.000Z</time>
      </trkpt>
      <trkpt lat="47.78708" lon="7.02672">
        <ele>613.939</ele>
        <time>2016-02-08T09:25:05.000Z</time>
      </trkpt>
      <trkpt lat="47.78714" lon="7.02652">
        <ele>614.9</ele>
        <time>2016-02-08T09:25:24.000Z</time>
      </trkpt>
      <trkpt lat="47.78709" lon="7.02645">
        <ele>619.226</ele>
        <time>2016-02-08T09:26:52.000Z</time>
      </trkpt>
      <trkpt lat="47.78717" lon="7.02631">
        <ele>619.226</ele>
        <time>2016-02-08T09:27:20.000Z</time>
      </trkpt>
      <trkpt lat="47.78728" lon="7.02611">
        <ele>619.226</ele>
        <time>2016-02-08T09:27:43.000Z</time>
      </trkpt>
      <trkpt lat="47.78739" lon="7.02578">
        <ele>616.342</ele>
        <time>2016-02-08T09:28:07.000Z</time>
      </trkpt>
      <trkpt lat="47.78738" lon="7.02558">
        <ele>612.978</ele>
        <time>2016-02-08T09:28:17.000Z</time>
      </trkpt>
      <trkpt lat="47.7874" lon="7.02538">
        <ele>609.613</ele>
        <time>2016-02-08T09:28:31.000Z</time>
      </trkpt>
      <trkpt lat="47.78755" lon="7.02517">
        <ele>608.652</ele>
        <time>2016-02-08T09:28:50.000Z</time>
      </trkpt>
      <trkpt lat="47.78793" lon="7.02492">
        <ele>608.652</ele>
        <time>2016-02-08T09:29:39.000Z</time>
      </trkpt>
      <trkpt lat="47.78796" lon="7.02511">
        <ele>608.652</ele>
        <time>2016-02-08T09:30:00.000Z</time>
      </trkpt>
      <trkpt lat="47.78825" lon="7.02538">
        <ele>612.978</ele>
        <time>2016-02-08T09:30:37.000Z</time>
      </trkpt>
      <trkpt lat="47.78837" lon="7.02544">
        <ele>612.978</ele>
        <time>2016-02-08T09:30:49.000Z</time>
      </trkpt>
      <trkpt lat="47.78854" lon="7.02548">
        <ele>612.978</ele>
        <time>2016-02-08T09:31:11.000Z</time>
      </trkpt>
      <trkpt lat="47.78864" lon="7.02555">
        <ele>611.055</ele>
        <time>2016-02-08T09:31:29.000Z</time>
      </trkpt>
      <trkpt lat="47.78885" lon="7.0256">
        <ele>601.442</ele>
        <time>2016-02-08T09:32:12.000Z</time>
      </trkpt>
      <trkpt lat="47.78909" lon="7.02562">
        <ele>600.961</ele>
        <time>2016-02-08T09:33:12.000Z</time>
      </trkpt>
      <trkpt lat="47.78919" lon="7.02548">
        <ele>600.961</ele>
        <time>2016-02-08T09:33:27.000Z</time>
      </trkpt>
      <trkpt lat="47.78925" lon="7.02536">
        <ele>600.961</ele>
        <time>2016-02-08T09:33:46.000Z</time>
      </trkpt>
      <trkpt lat="47.78956" lon="7.02539">
        <ele>598.558</ele>
        <time>2016-02-08T09:34:08.000Z</time>
      </trkpt>
      <trkpt lat="47.78961" lon="7.02537">
        <ele>590.867</ele>
        <time>2016-02-08T09:34:16.000Z</time>
      </trkpt>
      <trkpt lat="47.78959" lon="7.02547">
        <ele>585.1</ele>
        <time>2016-02-08T09:34:32.000Z</time>
      </trkpt>
      <trkpt lat="47.78976" lon="7.02557">
        <ele>585.1</ele>
        <time>2016-02-08T09:34:43.000Z</time>
      </trkpt>
      <trkpt lat="47.78982" lon="7.02583">
        <ele>585.1</ele>
        <time>2016-02-08T09:35:05.000Z</time>
      </trkpt>
      <trkpt lat="47.78992" lon="7.02588">
        <ele>587.983</ele>
        <time>2016-02-08T09:35:30.000Z</time>
      </trkpt>
      <trkpt lat="47.78997" lon="7.02623">
        <ele>587.983</ele>
        <time>2016-02-08T09:35:58.000Z</time>
      </trkpt>
      <trkpt lat="47.7901" lon="7.02658">
        <ele>580.774</ele>
        <time>2016-02-08T09:36:36.000Z</time>
      </trkpt>
      <trkpt lat="47.7902" lon="7.02683">
        <ele>579.332</ele>
        <time>2016-02-08T09:37:24.000Z</time>
      </trkpt>
      <trkpt lat="47.79099" lon="7.02675">
        <ele>579.332</ele>
        <time>2016-02-08T09:42:11.000Z</time>
      </trkpt>
      <trkpt lat="47.79092" lon="7.02696">
        <ele>577.89</ele>
        <time>2016-02-08T09:42:51.000Z</time>
      </trkpt>
      <trkpt lat="47.79099" lon="7.02726">
        <ele>577.89</ele>
        <time>2016-02-08T09:43:16.000Z</time>
      </trkpt>
      <trkpt lat="47.79123" lon="7.02714">
        <ele>577.89</ele>
        <time>2016-02-08T09:43:46.000Z</time>
      </trkpt>
      <trkpt lat="47.79128" lon="7.02751">
        <ele>577.89</ele>
        <time>2016-02-08T09:44:09.000Z</time>
      </trkpt>
      <trkpt lat="47.79135" lon="7.02766">
        <ele>577.89</ele>
        <time>2016-02-08T09:44:19.000Z</time>
      </trkpt>
      <trkpt lat="47.79163" lon="7.02789">
        <ele>573.564</ele>
        <time>2016-02-08T09:44:48.000Z</time>
      </trkpt>
      <trkpt lat="47.79181" lon="7.02795">
        <ele>572.603</ele>
        <time>2016-02-08T09:45:17.000Z</time>
      </trkpt>
      <trkpt lat="47.79184" lon="7.02798">
        <ele>566.354</ele>
        <time>2016-02-08T09:45:31.000Z</time>
      </trkpt>
      <trkpt lat="47.79192" lon="7.02815">
        <ele>566.354</ele>
        <time>2016-02-08T09:45:50.000Z</time>
      </trkpt>
      <trkpt lat="47.79214" lon="7.02858">
        <ele>564.431</ele>
        <time>2016-02-08T09:46:19.000Z</time>
      </trkpt>
      <trkpt lat="47.79223" lon="7.02868">
        <ele>562.028</ele>
        <time>2016-02-08T09:46:38.000Z</time>
      </trkpt>
      <trkpt lat="47.7923" lon="7.02878">
        <ele>561.067</ele>
        <time>2016-02-08T09:46:47.000Z</time>
      </trkpt>
      <trkpt lat="47.79237" lon="7.02884">
        <ele>555.779</ele>
        <time>2016-02-08T09:46:56.000Z</time>
      </trkpt>
      <trkpt lat="47.79245" lon="7.0289">
        <ele>555.779</ele>
        <time>2016-02-08T09:47:07.000Z</time>
      </trkpt>
      <trkpt lat="47.79256" lon="7.02895">
        <ele>555.299</ele>
        <time>2016-02-08T09:47:37.000Z</time>
      </trkpt>
      <trkpt lat="47.79253" lon="7.02914">
        <ele>552.895</ele>
        <time>2016-02-08T09:47:58.000Z</time>
      </trkpt>
      <trkpt lat="47.79275" lon="7.02919">
        <ele>547.608</ele>
        <time>2016-02-08T09:48:30.000Z</time>
      </trkpt>
      <trkpt lat="47.79284" lon="7.02919">
        <ele>543.763</ele>
        <time>2016-02-08T09:48:40.000Z</time>
      </trkpt>
      <trkpt lat="47.79301" lon="7.02917">
        <ele>537.034</ele>
        <time>2016-02-08T09:48:54.000Z</time>
      </trkpt>
      <trkpt lat="47.79329" lon="7.02918">
        <ele>533.669</ele>
        <time>2016-02-08T09:49:20.000Z</time>
      </trkpt>
      <trkpt lat="47.79335" lon="7.02918">
        <ele>533.669</ele>
        <time>2016-02-08T09:49:30.000Z</time>
      </trkpt>
      <trkpt lat="47.79348" lon="7.02928">
        <ele>533.669</ele>
        <time>2016-02-08T09:49:46.000Z</time>
      </trkpt>
      <trkpt lat="47.79366" lon="7.02926">
        <ele>533.669</ele>
        <time>2016-02-08T09:49:58.000Z</time>
      </trkpt>
      <trkpt lat="47.79379" lon="7.02916">
        <ele>538.956</ele>
        <time>2016-02-08T09:50:09.000Z</time>
      </trkpt>
      <trkpt lat="47.7939" lon="7.02911">
        <ele>545.686</ele>
        <time>2016-02-08T09:50:30.000Z</time>
      </trkpt>
      <trkpt lat="47.79404" lon="7.02922">
        <ele>550.011</ele>
        <time>2016-02-08T09:50:47.000Z</time>
      </trkpt>
      <trkpt lat="47.79403" lon="7.02948">
        <ele>550.011</ele>
        <time>2016-02-08T09:51:04.000Z</time>
      </trkpt>
      <trkpt lat="47.79417" lon="7.02959">
        <ele>550.011</ele>
        <time>2016-02-08T09:51:19.000Z</time>
      </trkpt>
      <trkpt lat="47.7942" lon="7.02967">
        <ele>546.647</ele>
        <time>2016-02-08T09:51:29.000Z</time>
      </trkpt>
      <trkpt lat="47.79427" lon="7.02973">
        <ele>544.244</ele>
        <time>2016-02-08T09:51:40.000Z</time>
      </trkpt>
      <trkpt lat="47.79424" lon="7.02991">
        <ele>544.244</ele>
        <time>2016-02-08T09:53:20.000Z</time>
      </trkpt>
      <trkpt lat="47.79417" lon="7.03024">
        <ele>550.973</ele>
        <time>2016-02-08T09:53:42.000Z</time>
      </trkpt>
      <trkpt lat="47.79419" lon="7.03033">
        <ele>557.221</ele>
        <time>2016-02-08T09:53:50.000Z</time>
      </trkpt>
      <trkpt lat="47.79422" lon="7.03045">
        <ele>557.221</ele>
        <time>2016-02-08T09:54:00.000Z</time>
      </trkpt>
      <trkpt lat="47.79469" lon="7.0312">
        <ele>557.221</ele>
        <time>2016-02-08T09:55:11.000Z</time>
      </trkpt>
      <trkpt lat="47.7948" lon="7.03123">
        <ele>557.221</ele>
        <time>2016-02-08T09:55:20.000Z</time>
      </trkpt>
      <trkpt lat="47.79492" lon="7.03108">
        <ele>557.221</ele>
        <time>2016-02-08T09:55:37.000Z</time>
      </trkpt>
      <trkpt lat="47.79515" lon="7.03">
        <ele>560.586</ele>
        <time>2016-02-08T09:56:58.000Z</time>
      </trkpt>
      <trkpt lat="47.79526" lon="7.03002">
        <ele>560.586</ele>
        <time>2016-02-08T09:57:50.000Z</time>
      </trkpt>
      <trkpt lat="47.79535" lon="7.03007">
        <ele>555.299</ele>
        <time>2016-02-08T10:00:48.000Z</time>
      </trkpt>
      <trkpt lat="47.79569" lon="7.03032">
        <ele>554.337</ele>
        <time>2016-02-08T12:14:57.000Z</time>
      </trkpt>
      <trkpt lat="47.79605" lon="7.03042">
        <ele>552.895</ele>
        <time>2016-02-08T12:15:14.000Z</time>
      </trkpt>
      <trkpt lat="47.79644" lon="7.03041">
        <ele>552.895</ele>
        <time>2016-02-08T12:15:24.000Z</time>
      </trkpt>
      <trkpt lat="47.79656" lon="7.03029">
        <ele>552.895</ele>
        <time>2016-02-08T12:15:59.000Z</time>
      </trkpt>
      <trkpt lat="47.79659" lon="7.03031">
        <ele>548.089</ele>
        <time>2016-02-08T12:16:04.000Z</time>
      </trkpt>
      <trkpt lat="47.79669" lon="7.03039">
        <ele>543.282</ele>
        <time>2016-02-08T12:16:17.000Z</time>
      </trkpt>
      <trkpt lat="47.79688" lon="7.0305">
        <ele>543.282</ele>
        <time>2016-02-08T12:16:28.000Z</time>
      </trkpt>
      <trkpt lat="47.79697" lon="7.03069">
        <ele>543.282</ele>
        <time>2016-02-08T12:16:42.000Z</time>
      </trkpt>
      <trkpt lat="47.79704" lon="7.03091">
        <ele>549.531</ele>
        <time>2016-02-08T12:16:57.000Z</time>
      </trkpt>
      <trkpt lat="47.79718" lon="7.03092">
        <ele>549.531</ele>
        <time>2016-02-08T12:17:08.000Z</time>
      </trkpt>
      <trkpt lat="47.79722" lon="7.03077">
        <ele>549.531</ele>
        <time>2016-02-08T12:17:33.000Z</time>
      </trkpt>
      <trkpt lat="47.79713" lon="7.03083">
        <ele>549.531</ele>
        <time>2016-02-08T12:17:44.000Z</time>
      </trkpt>
      <trkpt lat="47.79702" lon="7.03102">
        <ele>549.531</ele>
        <time>2016-02-08T12:17:57.000Z</time>
      </trkpt>
      <trkpt lat="47.79673" lon="7.03122">
        <ele>545.686</ele>
        <time>2016-02-08T12:18:28.000Z</time>
      </trkpt>
      <trkpt lat="47.79643" lon="7.03201">
        <ele>545.686</ele>
        <time>2016-02-08T12:19:26.000Z</time>
      </trkpt>
      <trkpt lat="47.79641" lon="7.03227">
        <ele>545.686</ele>
        <time>2016-02-08T12:19:44.000Z</time>
      </trkpt>
      <trkpt lat="47.79645" lon="7.03252">
        <ele>542.802</ele>
        <time>2016-02-08T12:20:04.000Z</time>
      </trkpt>
      <trkpt lat="47.79675" lon="7.03315">
        <ele>543.282</ele>
        <time>2016-02-08T12:20:58.000Z</time>
      </trkpt>
      <trkpt lat="47.79695" lon="7.03324">
        <ele>543.282</ele>
        <time>2016-02-08T12:21:17.000Z</time>
      </trkpt>
      <trkpt lat="47.79705" lon="7.03333">
        <ele>543.282</ele>
        <time>2016-02-08T12:21:27.000Z</time>
      </trkpt>
      <trkpt lat="47.79719" lon="7.03353">
        <ele>544.244</ele>
        <time>2016-02-08T12:21:45.000Z</time>
      </trkpt>
      <trkpt lat="47.79734" lon="7.03365">
        <ele>544.244</ele>
        <time>2016-02-08T12:22:02.000Z</time>
      </trkpt>
      <trkpt lat="47.79749" lon="7.03369">
        <ele>544.244</ele>
        <time>2016-02-08T12:22:13.000Z</time>
      </trkpt>
      <trkpt lat="47.7975" lon="7.03383">
        <ele>544.724</ele>
        <time>2016-02-08T12:22:22.000Z</time>
      </trkpt>
      <trkpt lat="47.79746" lon="7.03395">
        <ele>544.724</ele>
        <time>2016-02-08T12:24:08.000Z</time>
      </trkpt>
      <trkpt lat="47.79727" lon="7.034">
        <ele>549.05</ele>
        <time>2016-02-08T12:24:35.000Z</time>
      </trkpt>
      <trkpt lat="47.79699" lon="7.03411">
        <ele>555.299</ele>
        <time>2016-02-08T12:25:22.000Z</time>
      </trkpt>
      <trkpt lat="47.79689" lon="7.03411">
        <ele>561.547</ele>
        <time>2016-02-08T12:25:33.000Z</time>
      </trkpt>
      <trkpt lat="47.79686" lon="7.03413">
        <ele>564.912</ele>
        <time>2016-02-08T12:25:47.000Z</time>
      </trkpt>
      <trkpt lat="47.79677" lon="7.03415">
        <ele>565.873</ele>
        <time>2016-02-08T12:25:58.000Z</time>
      </trkpt>
      <trkpt lat="47.79665" lon="7.03416">
        <ele>573.083</ele>
        <time>2016-02-08T12:26:20.000Z</time>
      </trkpt>
      <trkpt lat="47.79641" lon="7.03408">
        <ele>578.37</ele>
        <time>2016-02-08T12:26:54.000Z</time>
      </trkpt>
      <trkpt lat="47.79635" lon="7.03408">
        <ele>581.735</ele>
        <time>2016-02-08T12:27:04.000Z</time>
      </trkpt>
      <trkpt lat="47.79625" lon="7.03411">
        <ele>585.1</ele>
        <time>2016-02-08T12:27:15.000Z</time>
      </trkpt>
      <trkpt lat="47.79613" lon="7.03423">
        <ele>585.1</ele>
        <time>2016-02-08T12:27:49.000Z</time>
      </trkpt>
      <trkpt lat="47.79609" lon="7.03418">
        <ele>589.426</ele>
        <time>2016-02-08T12:27:59.000Z</time>
      </trkpt>
      <trkpt lat="47.79605" lon="7.03412">
        <ele>589.906</ele>
        <time>2016-02-08T12:28:10.000Z</time>
      </trkpt>
      <trkpt lat="47.79531" lon="7.03394">
        <ele>591.829</ele>
        <time>2016-02-08T12:29:35.000Z</time>
      </trkpt>
      <trkpt lat="47.79518" lon="7.03394">
        <ele>591.829</ele>
        <time>2016-02-08T12:29:52.000Z</time>
      </trkpt>
      <trkpt lat="47.79497" lon="7.03412">
        <ele>591.829</ele>
        <time>2016-02-08T12:31:14.000Z</time>
      </trkpt>
      <trkpt lat="47.79484" lon="7.03414">
        <ele>591.829</ele>
        <time>2016-02-08T12:31:35.000Z</time>
      </trkpt>
      <trkpt lat="47.79473" lon="7.03406">
        <ele>597.597</ele>
        <time>2016-02-08T12:31:52.000Z</time>
      </trkpt>
      <trkpt lat="47.79472" lon="7.034">
        <ele>605.768</ele>
        <time>2016-02-08T12:32:00.000Z</time>
      </trkpt>
      <trkpt lat="47.79461" lon="7.03392">
        <ele>613.939</ele>
        <time>2016-02-08T12:32:59.000Z</time>
      </trkpt>
      <trkpt lat="47.79456" lon="7.03387">
        <ele>617.784</ele>
        <time>2016-02-08T12:33:06.000Z</time>
      </trkpt>
      <trkpt lat="47.79446" lon="7.03394">
        <ele>617.784</ele>
        <time>2016-02-08T12:33:19.000Z</time>
      </trkpt>
      <trkpt lat="47.79417" lon="7.03424">
        <ele>621.149</ele>
        <time>2016-02-08T12:34:03.000Z</time>
      </trkpt>
      <trkpt lat="47.79401" lon="7.03443">
        <ele>625.475</ele>
        <time>2016-02-08T12:34:36.000Z</time>
      </trkpt>
      <trkpt lat="47.7939" lon="7.03478">
        <ele>627.878</ele>
        <time>2016-02-08T12:35:51.000Z</time>
      </trkpt>
      <trkpt lat="47.79386" lon="7.03503">
        <ele>627.878</ele>
        <time>2016-02-08T12:36:43.000Z</time>
      </trkpt>
      <trkpt lat="47.79386" lon="7.03522">
        <ele>627.878</ele>
        <time>2016-02-08T12:37:05.000Z</time>
      </trkpt>
      <trkpt lat="47.79373" lon="7.03551">
        <ele>628.359</ele>
        <time>2016-02-08T12:37:26.000Z</time>
      </trkpt>
      <trkpt lat="47.79375" lon="7.03596">
        <ele>628.359</ele>
        <time>2016-02-08T12:38:05.000Z</time>
      </trkpt>
      <trkpt lat="47.7937" lon="7.03623">
        <ele>629.801</ele>
        <time>2016-02-08T12:38:28.000Z</time>
      </trkpt>
      <trkpt lat="47.79374" lon="7.03638">
        <ele>629.801</ele>
        <time>2016-02-08T12:38:40.000Z</time>
      </trkpt>
      <trkpt lat="47.79357" lon="7.03688">
        <ele>636.05</ele>
        <time>2016-02-08T12:39:14.000Z</time>
      </trkpt>
      <trkpt lat="47.7936" lon="7.03704">
        <ele>636.53</ele>
        <time>2016-02-08T12:39:27.000Z</time>
      </trkpt>
      <trkpt lat="47.79351" lon="7.0372">
        <ele>636.53</ele>
        <time>2016-02-08T12:39:37.000Z</time>
      </trkpt>
      <trkpt lat="47.79352" lon="7.0374">
        <ele>636.53</ele>
        <time>2016-02-08T12:40:16.000Z</time>
      </trkpt>
      <trkpt lat="47.79348" lon="7.03772">
        <ele>638.453</ele>
        <time>2016-02-08T12:40:32.000Z</time>
      </trkpt>
      <trkpt lat="47.79343" lon="7.03791">
        <ele>638.453</ele>
        <time>2016-02-08T12:40:42.000Z</time>
      </trkpt>
      <trkpt lat="47.7935" lon="7.03942">
        <ele>638.934</ele>
        <time>2016-02-08T12:42:21.000Z</time>
      </trkpt>
      <trkpt lat="47.79354" lon="7.03957">
        <ele>644.221</ele>
        <time>2016-02-08T12:42:30.000Z</time>
      </trkpt>
      <trkpt lat="47.79361" lon="7.03969">
        <ele>646.624</ele>
        <time>2016-02-08T12:42:40.000Z</time>
      </trkpt>
      <trkpt lat="47.79361" lon="7.03984">
        <ele>646.624</ele>
        <time>2016-02-08T12:43:08.000Z</time>
      </trkpt>
      <trkpt lat="47.79367" lon="7.04005">
        <ele>650.469</ele>
        <time>2016-02-08T12:43:30.000Z</time>
      </trkpt>
      <trkpt lat="47.79372" lon="7.04021">
        <ele>655.276</ele>
        <time>2016-02-08T12:43:40.000Z</time>
      </trkpt>
      <trkpt lat="47.7938" lon="7.04035">
        <ele>658.64</ele>
        <time>2016-02-08T12:43:51.000Z</time>
      </trkpt>
      <trkpt lat="47.79388" lon="7.04041">
        <ele>658.64</ele>
        <time>2016-02-08T12:43:59.000Z</time>
      </trkpt>
      <trkpt lat="47.794" lon="7.04054">
        <ele>658.64</ele>
        <time>2016-02-08T12:44:12.000Z</time>
      </trkpt>
      <trkpt lat="47.79411" lon="7.04059">
        <ele>653.353</ele>
        <time>2016-02-08T12:44:22.000Z</time>
      </trkpt>
      <trkpt lat="47.79424" lon="7.04089">
        <ele>653.353</ele>
        <time>2016-02-08T12:44:49.000Z</time>
      </trkpt>
      <trkpt lat="47.79431" lon="7.04123">
        <ele>653.353</ele>
        <time>2016-02-08T12:45:18.000Z</time>
      </trkpt>
      <trkpt lat="47.79417" lon="7.04134">
        <ele>657.198</ele>
        <time>2016-02-08T12:45:35.000Z</time>
      </trkpt>
      <trkpt lat="47.79416" lon="7.04166">
        <ele>659.121</ele>
        <time>2016-02-08T12:45:58.000Z</time>
      </trkpt>
      <trkpt lat="47.79409" lon="7.04177">
        <ele>663.447</ele>
        <time>2016-02-08T12:46:07.000Z</time>
      </trkpt>
      <trkpt lat="47.79408" lon="7.04192">
        <ele>663.447</ele>
        <time>2016-02-08T12:46:19.000Z</time>
      </trkpt>
      <trkpt lat="47.79399" lon="7.04222">
        <ele>663.927</ele>
        <time>2016-02-08T12:46:41.000Z</time>
      </trkpt>
      <trkpt lat="47.79397" lon="7.04242">
        <ele>670.657</ele>
        <time>2016-02-08T12:46:52.000Z</time>
      </trkpt>
      <trkpt lat="47.79389" lon="7.04257">
        <ele>671.618</ele>
        <time>2016-02-08T12:47:11.000Z</time>
      </trkpt>
      <trkpt lat="47.79374" lon="7.04268">
        <ele>671.618</ele>
        <time>2016-02-08T12:47:32.000Z</time>
      </trkpt>
      <trkpt lat="47.79363" lon="7.04269">
        <ele>671.618</ele>
        <time>2016-02-08T12:47:40.000Z</time>
      </trkpt>
      <trkpt lat="47.79355" lon="7.04288">
        <ele>671.618</ele>
        <time>2016-02-08T12:47:59.000Z</time>
      </trkpt>
      <trkpt lat="47.7934" lon="7.04306">
        <ele>671.618</ele>
        <time>2016-02-08T12:48:26.000Z</time>
      </trkpt>
      <trkpt lat="47.79267" lon="7.04336">
        <ele>671.618</ele>
        <time>2016-02-08T12:49:41.000Z</time>
      </trkpt>
      <trkpt lat="47.79235" lon="7.04337">
        <ele>671.618</ele>
        <time>2016-02-08T12:50:08.000Z</time>
      </trkpt>
      <trkpt lat="47.79196" lon="7.04327">
        <ele>671.618</ele>
        <time>2016-02-08T12:50:44.000Z</time>
      </trkpt>
      <trkpt lat="47.79187" lon="7.04332">
        <ele>666.812</ele>
        <time>2016-02-08T12:50:54.000Z</time>
      </trkpt>
      <trkpt lat="47.79132" lon="7.04348">
        <ele>663.927</ele>
        <time>2016-02-08T12:51:46.000Z</time>
      </trkpt>
      <trkpt lat="47.79115" lon="7.04364">
        <ele>663.927</ele>
        <time>2016-02-08T12:52:11.000Z</time>
      </trkpt>
      <trkpt lat="47.79096" lon="7.04407">
        <ele>663.447</ele>
        <time>2016-02-08T12:52:41.000Z</time>
      </trkpt>
      <trkpt lat="47.79099" lon="7.04423">
        <ele>663.927</ele>
        <time>2016-02-08T12:52:51.000Z</time>
      </trkpt>
      <trkpt lat="47.79096" lon="7.04523">
        <ele>663.447</ele>
        <time>2016-02-08T12:54:01.000Z</time>
      </trkpt>
      <trkpt lat="47.79086" lon="7.04561">
        <ele>662.966</ele>
        <time>2016-02-08T12:54:28.000Z</time>
      </trkpt>
      <trkpt lat="47.79102" lon="7.0457">
        <ele>663.447</ele>
        <time>2016-02-08T12:55:21.000Z</time>
      </trkpt>
      <trkpt lat="47.79092" lon="7.0458">
        <ele>664.408</ele>
        <time>2016-02-08T12:55:33.000Z</time>
      </trkpt>
      <trkpt lat="47.7909" lon="7.04602">
        <ele>664.408</ele>
        <time>2016-02-08T12:57:30.000Z</time>
      </trkpt>
      <trkpt lat="47.79086" lon="7.04618">
        <ele>669.696</ele>
        <time>2016-02-08T12:57:41.000Z</time>
      </trkpt>
      <trkpt lat="47.79093" lon="7.04632">
        <ele>669.696</ele>
        <time>2016-02-08T12:57:51.000Z</time>
      </trkpt>
      <trkpt lat="47.79097" lon="7.0465">
        <ele>669.696</ele>
        <time>2016-02-08T12:58:03.000Z</time>
      </trkpt>
      <trkpt lat="47.7911" lon="7.04668">
        <ele>666.331</ele>
        <time>2016-02-08T12:58:25.000Z</time>
      </trkpt>
      <trkpt lat="47.79124" lon="7.0467">
        <ele>654.795</ele>
        <time>2016-02-08T12:58:41.000Z</time>
      </trkpt>
      <trkpt lat="47.79154" lon="7.0467">
        <ele>645.663</ele>
        <time>2016-02-08T12:59:12.000Z</time>
      </trkpt>
      <trkpt lat="47.79173" lon="7.04656">
        <ele>640.856</ele>
        <time>2016-02-08T12:59:37.000Z</time>
      </trkpt>
      <trkpt lat="47.79181" lon="7.04658">
        <ele>637.011</ele>
        <time>2016-02-08T13:00:01.000Z</time>
      </trkpt>
      <trkpt lat="47.79187" lon="7.04654">
        <ele>635.088</ele>
        <time>2016-02-08T13:00:11.000Z</time>
      </trkpt>
      <trkpt lat="47.79197" lon="7.04649">
        <ele>625.956</ele>
        <time>2016-02-08T13:00:22.000Z</time>
      </trkpt>
      <trkpt lat="47.79213" lon="7.04651">
        <ele>625.956</ele>
        <time>2016-02-08T13:00:34.000Z</time>
      </trkpt>
      <trkpt lat="47.79219" lon="7.04668">
        <ele>631.723</ele>
        <time>2016-02-08T13:00:59.000Z</time>
      </trkpt>
      <trkpt lat="47.79216" lon="7.04683">
        <ele>640.856</ele>
        <time>2016-02-08T13:01:07.000Z</time>
      </trkpt>
      <trkpt lat="47.79216" lon="7.04703">
        <ele>641.817</ele>
        <time>2016-02-08T13:01:24.000Z</time>
      </trkpt>
      <trkpt lat="47.7924" lon="7.04702">
        <ele>641.817</ele>
        <time>2016-02-08T13:01:56.000Z</time>
      </trkpt>
      <trkpt lat="47.79245" lon="7.04696">
        <ele>633.646</ele>
        <time>2016-02-08T13:02:16.000Z</time>
      </trkpt>
      <trkpt lat="47.79228" lon="7.04694">
        <ele>628.359</ele>
        <time>2016-02-08T13:02:28.000Z</time>
      </trkpt>
      <trkpt lat="47.79209" lon="7.04725">
        <ele>625.475</ele>
        <time>2016-02-08T13:02:50.000Z</time>
      </trkpt>
      <trkpt lat="47.79196" lon="7.04734">
        <ele>621.149</ele>
        <time>2016-02-08T13:03:08.000Z</time>
      </trkpt>
      <trkpt lat="47.79187" lon="7.04736">
        <ele>619.226</ele>
        <time>2016-02-08T13:03:20.000Z</time>
      </trkpt>
      <trkpt lat="47.79181" lon="7.04748">
        <ele>619.226</ele>
        <time>2016-02-08T13:03:32.000Z</time>
      </trkpt>
      <trkpt lat="47.79181" lon="7.04765">
        <ele>619.226</ele>
        <time>2016-02-08T13:03:42.000Z</time>
      </trkpt>
      <trkpt lat="47.79174" lon="7.04773">
        <ele>618.265</ele>
        <time>2016-02-08T13:03:46.000Z</time>
      </trkpt>
      <trkpt lat="47.79173" lon="7.04791">
        <ele>618.265</ele>
        <time>2016-02-08T13:03:58.000Z</time>
      </trkpt>
      <trkpt lat="47.79152" lon="7.04827">
        <ele>614.9</ele>
        <time>2016-02-08T13:04:22.000Z</time>
      </trkpt>
      <trkpt lat="47.7913" lon="7.0486">
        <ele>612.497</ele>
        <time>2016-02-08T13:04:43.000Z</time>
      </trkpt>
      <trkpt lat="47.79138" lon="7.04871">
        <ele>612.017</ele>
        <time>2016-02-08T13:04:53.000Z</time>
      </trkpt>
      <trkpt lat="47.79147" lon="7.04864">
        <ele>605.287</ele>
        <time>2016-02-08T13:05:01.000Z</time>
      </trkpt>
      <trkpt lat="47.79157" lon="7.04845">
        <ele>605.287</ele>
        <time>2016-02-08T13:05:15.000Z</time>
      </trkpt>
      <trkpt lat="47.79156" lon="7.04825">
        <ele>605.287</ele>
        <time>2016-02-08T13:05:24.000Z</time>
      </trkpt>
      <trkpt lat="47.79165" lon="7.04813">
        <ele>607.691</ele>
        <time>2016-02-08T13:05:33.000Z</time>
      </trkpt>
      <trkpt lat="47.79171" lon="7.04795">
        <ele>609.613</ele>
        <time>2016-02-08T13:05:45.000Z</time>
      </trkpt>
      <trkpt lat="47.79181" lon="7.04782">
        <ele>611.055</ele>
        <time>2016-02-08T13:05:54.000Z</time>
      </trkpt>
      <trkpt lat="47.79185" lon="7.04773">
        <ele>615.862</ele>
        <time>2016-02-08T13:06:01.000Z</time>
      </trkpt>
      <trkpt lat="47.7919" lon="7.04768">
        <ele>615.862</ele>
        <time>2016-02-08T13:06:10.000Z</time>
      </trkpt>
      <trkpt lat="47.79204" lon="7.04771">
        <ele>615.862</ele>
        <time>2016-02-08T13:06:30.000Z</time>
      </trkpt>
      <trkpt lat="47.79231" lon="7.0475">
        <ele>607.21</ele>
        <time>2016-02-08T13:06:47.000Z</time>
      </trkpt>
      <trkpt lat="47.79258" lon="7.0473">
        <ele>607.21</ele>
        <time>2016-02-08T13:07:19.000Z</time>
      </trkpt>
      <trkpt lat="47.79273" lon="7.04736">
        <ele>607.21</ele>
        <time>2016-02-08T13:07:27.000Z</time>
      </trkpt>
      <trkpt lat="47.79278" lon="7.04755">
        <ele>613.939</ele>
        <time>2016-02-08T13:07:39.000Z</time>
      </trkpt>
      <trkpt lat="47.79292" lon="7.04768">
        <ele>616.823</ele>
        <time>2016-02-08T13:07:57.000Z</time>
      </trkpt>
      <trkpt lat="47.79313" lon="7.04774">
        <ele>621.63</ele>
        <time>2016-02-08T13:08:10.000Z</time>
      </trkpt>
      <trkpt lat="47.79347" lon="7.04787">
        <ele>621.63</ele>
        <time>2016-02-08T13:09:08.000Z</time>
      </trkpt>
      <trkpt lat="47.79353" lon="7.04803">
        <ele>622.11</ele>
        <time>2016-02-08T13:09:19.000Z</time>
      </trkpt>
      <trkpt lat="47.79356" lon="7.04818">
        <ele>622.11</ele>
        <time>2016-02-08T13:09:27.000Z</time>
      </trkpt>
      <trkpt lat="47.79376" lon="7.0486">
        <ele>622.11</ele>
        <time>2016-02-08T13:09:58.000Z</time>
      </trkpt>
      <trkpt lat="47.79384" lon="7.0487">
        <ele>620.188</ele>
        <time>2016-02-08T13:10:06.000Z</time>
      </trkpt>
      <trkpt lat="47.79406" lon="7.04878">
        <ele>609.133</ele>
        <time>2016-02-08T13:10:23.000Z</time>
      </trkpt>
      <trkpt lat="47.79462" lon="7.04861">
        <ele>612.017</ele>
        <time>2016-02-08T13:11:14.000Z</time>
      </trkpt>
      <trkpt lat="47.79472" lon="7.04862">
        <ele>612.017</ele>
        <time>2016-02-08T13:11:23.000Z</time>
      </trkpt>
      <trkpt lat="47.79482" lon="7.04859">
        <ele>612.017</ele>
        <time>2016-02-08T13:11:34.000Z</time>
      </trkpt>
      <trkpt lat="47.79506" lon="7.0484">
        <ele>600.481</ele>
        <time>2016-02-08T13:11:52.000Z</time>
      </trkpt>
      <trkpt lat="47.79524" lon="7.04832">
        <ele>600.481</ele>
        <time>2016-02-08T13:12:06.000Z</time>
      </trkpt>
      <trkpt lat="47.79546" lon="7.04827">
        <ele>608.171</ele>
        <time>2016-02-08T13:12:27.000Z</time>
      </trkpt>
      <trkpt lat="47.79561" lon="7.04848">
        <ele>609.613</ele>
        <time>2016-02-08T13:12:49.000Z</time>
      </trkpt>
      <trkpt lat="47.79572" lon="7.04853">
        <ele>609.613</ele>
        <time>2016-02-08T13:12:59.000Z</time>
      </trkpt>
      <trkpt lat="47.79581" lon="7.04862">
        <ele>609.613</ele>
        <time>2016-02-08T13:13:10.000Z</time>
      </trkpt>
      <trkpt lat="47.79596" lon="7.04867">
        <ele>604.326</ele>
        <time>2016-02-08T13:13:24.000Z</time>
      </trkpt>
      <trkpt lat="47.79614" lon="7.04863">
        <ele>603.365</ele>
        <time>2016-02-08T13:13:35.000Z</time>
      </trkpt>
      <trkpt lat="47.7963" lon="7.0485">
        <ele>601.442</ele>
        <time>2016-02-08T13:13:52.000Z</time>
      </trkpt>
      <trkpt lat="47.79684" lon="7.0483">
        <ele>604.807</ele>
        <time>2016-02-08T13:14:37.000Z</time>
      </trkpt>
      <trkpt lat="47.79707" lon="7.04813">
        <ele>605.768</ele>
        <time>2016-02-08T13:15:04.000Z</time>
      </trkpt>
      <trkpt lat="47.79718" lon="7.04813">
        <ele>605.768</ele>
        <time>2016-02-08T13:15:14.000Z</time>
      </trkpt>
      <trkpt lat="47.79742" lon="7.04805">
        <ele>605.768</ele>
        <time>2016-02-08T13:15:32.000Z</time>
      </trkpt>
      <trkpt lat="47.79786" lon="7.04782">
        <ele>607.691</ele>
        <time>2016-02-08T13:16:05.000Z</time>
      </trkpt>
      <trkpt lat="47.79799" lon="7.0478">
        <ele>610.574</ele>
        <time>2016-02-08T13:16:16.000Z</time>
      </trkpt>
      <trkpt lat="47.79808" lon="7.04782">
        <ele>610.574</ele>
        <time>2016-02-08T13:16:30.000Z</time>
      </trkpt>
      <trkpt lat="47.79821" lon="7.04782">
        <ele>610.574</ele>
        <time>2016-02-08T13:16:38.000Z</time>
      </trkpt>
      <trkpt lat="47.79828" lon="7.04776">
        <ele>604.807</ele>
        <time>2016-02-08T13:16:49.000Z</time>
      </trkpt>
      <trkpt lat="47.79839" lon="7.04768">
        <ele>603.845</ele>
        <time>2016-02-08T13:17:00.000Z</time>
      </trkpt>
      <trkpt lat="47.79849" lon="7.0477">
        <ele>603.845</ele>
        <time>2016-02-08T13:17:10.000Z</time>
      </trkpt>
      <trkpt lat="47.79863" lon="7.04768">
        <ele>603.845</ele>
        <time>2016-02-08T13:17:22.000Z</time>
      </trkpt>
      <trkpt lat="47.79869" lon="7.04756">
        <ele>601.442</ele>
        <time>2016-02-08T13:17:35.000Z</time>
      </trkpt>
      <trkpt lat="47.79862" lon="7.04773">
        <ele>599.519</ele>
        <time>2016-02-08T13:18:10.000Z</time>
      </trkpt>
      <trkpt lat="47.7985" lon="7.04773">
        <ele>599.519</ele>
        <time>2016-02-08T13:18:25.000Z</time>
      </trkpt>
      <trkpt lat="47.79841" lon="7.04778">
        <ele>598.558</ele>
        <time>2016-02-08T13:18:36.000Z</time>
      </trkpt>
      <trkpt lat="47.79823" lon="7.04783">
        <ele>598.558</ele>
        <time>2016-02-08T13:18:51.000Z</time>
      </trkpt>
      <trkpt lat="47.79789" lon="7.04812">
        <ele>593.751</ele>
        <time>2016-02-08T13:19:27.000Z</time>
      </trkpt>
      <trkpt lat="47.79783" lon="7.04824">
        <ele>593.751</ele>
        <time>2016-02-08T13:19:33.000Z</time>
      </trkpt>
      <trkpt lat="47.79775" lon="7.04831">
        <ele>585.58</ele>
        <time>2016-02-08T13:19:46.000Z</time>
      </trkpt>
      <trkpt lat="47.79771" lon="7.0485">
        <ele>585.58</ele>
        <time>2016-02-08T13:19:57.000Z</time>
      </trkpt>
      <trkpt lat="47.79755" lon="7.04867">
        <ele>585.58</ele>
        <time>2016-02-08T13:20:07.000Z</time>
      </trkpt>
      <trkpt lat="47.79746" lon="7.04882">
        <ele>585.58</ele>
        <time>2016-02-08T13:20:15.000Z</time>
      </trkpt>
      <trkpt lat="47.79736" lon="7.04887">
        <ele>585.58</ele>
        <time>2016-02-08T13:20:24.000Z</time>
      </trkpt>
      <trkpt lat="47.79732" lon="7.04907">
        <ele>581.254</ele>
        <time>2016-02-08T13:20:41.000Z</time>
      </trkpt>
      <trkpt lat="47.7972" lon="7.04916">
        <ele>577.89</ele>
        <time>2016-02-08T13:20:51.000Z</time>
      </trkpt>
      <trkpt lat="47.79712" lon="7.04917">
        <ele>573.564</ele>
        <time>2016-02-08T13:21:00.000Z</time>
      </trkpt>
      <trkpt lat="47.79672" lon="7.04923">
        <ele>573.564</ele>
        <time>2016-02-08T13:21:28.000Z</time>
      </trkpt>
      <trkpt lat="47.79669" lon="7.04935">
        <ele>572.603</ele>
        <time>2016-02-08T13:21:39.000Z</time>
      </trkpt>
      <trkpt lat="47.79669" lon="7.0495">
        <ele>561.547</ele>
        <time>2016-02-08T13:21:59.000Z</time>
      </trkpt>
      <trkpt lat="47.79636" lon="7.04968">
        <ele>558.183</ele>
        <time>2016-02-08T13:22:36.000Z</time>
      </trkpt>
      <trkpt lat="47.79628" lon="7.04979">
        <ele>556.741</ele>
        <time>2016-02-08T13:22:57.000Z</time>
      </trkpt>
      <trkpt lat="47.79611" lon="7.05017">
        <ele>556.741</ele>
        <time>2016-02-08T13:23:34.000Z</time>
      </trkpt>
      <trkpt lat="47.79606" lon="7.05034">
        <ele>554.818</ele>
        <time>2016-02-08T13:23:52.000Z</time>
      </trkpt>
      <trkpt lat="47.79602" lon="7.05036">
        <ele>549.05</ele>
        <time>2016-02-08T13:24:01.000Z</time>
      </trkpt>
      <trkpt lat="47.79587" lon="7.0504">
        <ele>546.166</ele>
        <time>2016-02-08T13:24:14.000Z</time>
      </trkpt>
      <trkpt lat="47.79581" lon="7.05051">
        <ele>546.166</ele>
        <time>2016-02-08T13:24:25.000Z</time>
      </trkpt>
      <trkpt lat="47.79544" lon="7.05072">
        <ele>552.415</ele>
        <time>2016-02-08T13:25:07.000Z</time>
      </trkpt>
      <trkpt lat="47.79531" lon="7.05074">
        <ele>552.415</ele>
        <time>2016-02-08T13:25:13.000Z</time>
      </trkpt>
      <trkpt lat="47.79519" lon="7.05083">
        <ele>552.415</ele>
        <time>2016-02-08T13:25:24.000Z</time>
      </trkpt>
      <trkpt lat="47.79485" lon="7.05123">
        <ele>546.647</ele>
        <time>2016-02-08T13:26:24.000Z</time>
      </trkpt>
      <trkpt lat="47.79469" lon="7.05128">
        <ele>542.802</ele>
        <time>2016-02-08T13:26:52.000Z</time>
      </trkpt>
      <trkpt lat="47.7945" lon="7.05138">
        <ele>528.382</ele>
        <time>2016-02-08T13:27:07.000Z</time>
      </trkpt>
      <trkpt lat="47.7943" lon="7.05148">
        <ele>526.94</ele>
        <time>2016-02-08T13:28:28.000Z</time>
      </trkpt>
      <trkpt lat="47.79418" lon="7.05157">
        <ele>526.459</ele>
        <time>2016-02-08T13:28:47.000Z</time>
      </trkpt>
      <trkpt lat="47.79401" lon="7.05161">
        <ele>525.498</ele>
        <time>2016-02-08T13:28:59.000Z</time>
      </trkpt>
      <trkpt lat="47.79395" lon="7.05177">
        <ele>525.498</ele>
        <time>2016-02-08T13:29:13.000Z</time>
      </trkpt>
      <trkpt lat="47.79378" lon="7.0517">
        <ele>527.42</ele>
        <time>2016-02-08T13:29:26.000Z</time>
      </trkpt>
      <trkpt lat="47.7937" lon="7.05179">
        <ele>537.995</ele>
        <time>2016-02-08T13:29:37.000Z</time>
      </trkpt>
      <trkpt lat="47.79342" lon="7.05182">
        <ele>539.918</ele>
        <time>2016-02-08T13:29:54.000Z</time>
      </trkpt>
      <trkpt lat="47.79305" lon="7.05171">
        <ele>539.918</ele>
        <time>2016-02-08T13:30:26.000Z</time>
      </trkpt>
      <trkpt lat="47.79301" lon="7.05179">
        <ele>535.111</ele>
        <time>2016-02-08T13:30:35.000Z</time>
      </trkpt>
      <trkpt lat="47.79292" lon="7.0519">
        <ele>530.785</ele>
        <time>2016-02-08T13:30:46.000Z</time>
      </trkpt>
      <trkpt lat="47.79283" lon="7.05193">
        <ele>530.304</ele>
        <time>2016-02-08T13:31:11.000Z</time>
      </trkpt>
      <trkpt lat="47.79285" lon="7.05213">
        <ele>524.536</ele>
        <time>2016-02-08T13:31:27.000Z</time>
      </trkpt>
      <trkpt lat="47.79287" lon="7.05229">
        <ele>518.288</ele>
        <time>2016-02-08T13:31:37.000Z</time>
      </trkpt>
      <trkpt lat="47.79285" lon="7.05239">
        <ele>513.962</ele>
        <time>2016-02-08T13:31:45.000Z</time>
      </trkpt>
      <trkpt lat="47.79273" lon="7.05254">
        <ele>512.039</ele>
        <time>2016-02-08T13:31:55.000Z</time>
      </trkpt>
      <trkpt lat="47.79263" lon="7.05277">
        <ele>510.597</ele>
        <time>2016-02-08T13:32:16.000Z</time>
      </trkpt>
      <trkpt lat="47.79265" lon="7.05289">
        <ele>505.791</ele>
        <time>2016-02-08T13:32:24.000Z</time>
      </trkpt>
      <trkpt lat="47.79261" lon="7.05305">
        <ele>505.791</ele>
        <time>2016-02-08T13:32:33.000Z</time>
      </trkpt>
      <trkpt lat="47.79251" lon="7.05327">
        <ele>504.829</ele>
        <time>2016-02-08T13:32:49.000Z</time>
      </trkpt>
      <trkpt lat="47.7925" lon="7.05335">
        <ele>496.178</ele>
        <time>2016-02-08T13:32:58.000Z</time>
      </trkpt>
      <trkpt lat="47.79244" lon="7.05355">
        <ele>491.852</ele>
        <time>2016-02-08T13:33:10.000Z</time>
      </trkpt>
      <trkpt lat="47.79231" lon="7.05366">
        <ele>491.852</ele>
        <time>2016-02-08T13:33:21.000Z</time>
      </trkpt>
      <trkpt lat="47.79225" lon="7.05379">
        <ele>491.852</ele>
        <time>2016-02-08T13:33:32.000Z</time>
      </trkpt>
      <trkpt lat="47.79213" lon="7.05383">
        <ele>496.658</ele>
        <time>2016-02-08T13:33:39.000Z</time>
      </trkpt>
      <trkpt lat="47.79209" lon="7.05385">
        <ele>501.465</ele>
        <time>2016-02-08T13:33:41.000Z</time>
      </trkpt>
      <trkpt lat="47.79158" lon="7.05408">
        <ele>501.465</ele>
        <time>2016-02-08T13:34:23.000Z</time>
      </trkpt>
      <trkpt lat="47.79152" lon="7.05407">
        <ele>495.697</ele>
        <time>2016-02-08T13:34:33.000Z</time>
      </trkpt>
      <trkpt lat="47.79141" lon="7.05419">
        <ele>495.216</ele>
        <time>2016-02-08T13:34:43.000Z</time>
      </trkpt>
      <trkpt lat="47.79134" lon="7.05429">
        <ele>495.216</ele>
        <time>2016-02-08T13:34:53.000Z</time>
      </trkpt>
      <trkpt lat="47.79129" lon="7.05442">
        <ele>495.216</ele>
        <time>2016-02-08T13:35:05.000Z</time>
      </trkpt>
      <trkpt lat="47.79106" lon="7.05472">
        <ele>494.255</ele>
        <time>2016-02-08T13:35:26.000Z</time>
      </trkpt>
      <trkpt lat="47.79063" lon="7.0549">
        <ele>489.929</ele>
        <time>2016-02-08T13:36:05.000Z</time>
      </trkpt>
      <trkpt lat="47.79058" lon="7.05495">
        <ele>479.354</ele>
        <time>2016-02-08T13:36:14.000Z</time>
      </trkpt>
      <trkpt lat="47.79039" lon="7.05512">
        <ele>474.548</ele>
        <time>2016-02-08T13:36:33.000Z</time>
      </trkpt>
      <trkpt lat="47.79036" lon="7.05526">
        <ele>474.548</ele>
        <time>2016-02-08T13:36:41.000Z</time>
      </trkpt>
      <trkpt lat="47.79027" lon="7.05541">
        <ele>474.548</ele>
        <time>2016-02-08T13:36:51.000Z</time>
      </trkpt>
      <trkpt lat="47.78994" lon="7.05564">
        <ele>474.548</ele>
        <time>2016-02-08T13:37:25.000Z</time>
      </trkpt>
      <trkpt lat="47.78986" lon="7.05562">
        <ele>469.741</ele>
        <time>2016-02-08T13:37:34.000Z</time>
      </trkpt>
      <trkpt lat="47.78983" lon="7.05565">
        <ele>469.741</ele>
        <time>2016-02-08T13:37:38.000Z</time>
      </trkpt>
      <trkpt lat="47.78968" lon="7.05577">
        <ele>469.261</ele>
        <time>2016-02-08T13:38:55.000Z</time>
      </trkpt>
      <trkpt lat="47.78963" lon="7.05571">
        <ele>458.206</ele>
        <time>2016-02-08T13:39:12.000Z</time>
      </trkpt>
      <trkpt lat="47.78954" lon="7.05569">
        <ele>458.206</ele>
        <time>2016-02-08T13:39:20.000Z</time>
      </trkpt>
      <trkpt lat="47.78941" lon="7.0556">
        <ele>458.206</ele>
        <time>2016-02-08T13:39:30.000Z</time>
      </trkpt>
      <trkpt lat="47.78881" lon="7.05544">
        <ele>463.012</ele>
        <time>2016-02-08T13:40:22.000Z</time>
      </trkpt>
      <trkpt lat="47.78867" lon="7.05545">
        <ele>463.012</ele>
        <time>2016-02-08T13:40:33.000Z</time>
      </trkpt>
      <trkpt lat="47.78859" lon="7.05558">
        <ele>468.78</ele>
        <time>2016-02-08T13:40:46.000Z</time>
      </trkpt>
      <trkpt lat="47.78821" lon="7.0559">
        <ele>480.316</ele>
        <time>2016-02-08T13:41:15.000Z</time>
      </trkpt>
      <trkpt lat="47.78804" lon="7.05593">
        <ele>480.316</ele>
        <time>2016-02-08T13:41:26.000Z</time>
      </trkpt>
      <trkpt lat="47.78793" lon="7.05588">
        <ele>480.316</ele>
        <time>2016-02-08T13:41:41.000Z</time>
      </trkpt>
      <trkpt lat="47.78782" lon="7.05594">
        <ele>474.067</ele>
        <time>2016-02-08T13:41:52.000Z</time>
      </trkpt>
      <trkpt lat="47.78743" lon="7.05588">
        <ele>469.261</ele>
        <time>2016-02-08T13:42:35.000Z</time>
      </trkpt>
      <trkpt lat="47.78728" lon="7.05571">
        <ele>469.261</ele>
        <time>2016-02-08T13:42:55.000Z</time>
      </trkpt>
      <trkpt lat="47.78717" lon="7.05573">
        <ele>468.78</ele>
        <time>2016-02-08T13:43:02.000Z</time>
      </trkpt>
      <trkpt lat="47.78709" lon="7.05565">
        <ele>468.78</ele>
        <time>2016-02-08T13:43:11.000Z</time>
      </trkpt>
      <trkpt lat="47.78693" lon="7.05566">
        <ele>468.78</ele>
        <time>2016-02-08T13:43:22.000Z</time>
      </trkpt>
      <trkpt lat="47.7869" lon="7.05575">
        <ele>464.454</ele>
        <time>2016-02-08T13:43:35.000Z</time>
      </trkpt>
      <trkpt lat="47.78672" lon="7.05574">
        <ele>452.918</ele>
        <time>2016-02-08T13:43:48.000Z</time>
      </trkpt>
      <trkpt lat="47.7867" lon="7.05574">
        <ele>447.631</ele>
        <time>2016-02-08T13:43:50.000Z</time>
      </trkpt>
      <trkpt lat="47.78667" lon="7.05578">
        <ele>443.786</ele>
        <time>2016-02-08T13:43:55.000Z</time>
      </trkpt>
      <trkpt lat="47.78661" lon="7.05593">
        <ele>431.769</ele>
        <time>2016-02-08T13:44:06.000Z</time>
      </trkpt>
      <trkpt lat="47.78646" lon="7.05614">
        <ele>431.769</ele>
        <time>2016-02-08T13:44:21.000Z</time>
      </trkpt>
      <trkpt lat="47.78624" lon="7.05627">
        <ele>438.018</ele>
        <time>2016-02-08T13:44:43.000Z</time>
      </trkpt>
      <trkpt lat="47.78619" lon="7.05631">
        <ele>442.824</ele>
        <time>2016-02-08T13:44:45.000Z</time>
      </trkpt>
      <trkpt lat="47.78609" lon="7.05621">
        <ele>445.708</ele>
        <time>2016-02-08T13:44:58.000Z</time>
      </trkpt>
      <trkpt lat="47.78595" lon="7.05622">
        <ele>451.957</ele>
        <time>2016-02-08T13:45:07.000Z</time>
      </trkpt>
      <trkpt lat="47.78582" lon="7.05642">
        <ele>451.957</ele>
        <time>2016-02-08T13:45:31.000Z</time>
      </trkpt>
      <trkpt lat="47.78569" lon="7.05637">
        <ele>448.592</ele>
        <time>2016-02-08T13:45:49.000Z</time>
      </trkpt>
      <trkpt lat="47.78562" lon="7.05639">
        <ele>428.885</ele>
        <time>2016-02-08T13:45:58.000Z</time>
      </trkpt>
      <trkpt lat="47.78551" lon="7.05652">
        <ele>428.885</ele>
        <time>2016-02-08T13:46:11.000Z</time>
      </trkpt>
      <trkpt lat="47.78534" lon="7.05705">
        <ele>428.885</ele>
        <time>2016-02-08T13:46:44.000Z</time>
      </trkpt>
      <trkpt lat="47.78514" lon="7.05743">
        <ele>431.769</ele>
        <time>2016-02-08T13:47:53.000Z</time>
      </trkpt>
      <trkpt lat="47.78502" lon="7.05746">
        <ele>431.769</ele>
        <time>2016-02-08T13:48:02.000Z</time>
      </trkpt>
      <trkpt lat="47.78492" lon="7.05757">
        <ele>431.769</ele>
        <time>2016-02-08T13:48:13.000Z</time>
      </trkpt>
      <trkpt lat="47.78486" lon="7.05762">
        <ele>424.079</ele>
        <time>2016-02-08T13:48:20.000Z</time>
      </trkpt>
      <trkpt lat="47.78467" lon="7.05777">
        <ele>411.582</ele>
        <time>2016-02-08T13:48:37.000Z</time>
      </trkpt>
      <trkpt lat="47.78456" lon="7.0579">
        <ele>404.372</ele>
        <time>2016-02-08T13:48:50.000Z</time>
      </trkpt>
      <trkpt lat="47.78434" lon="7.05802">
        <ele>399.084</ele>
        <time>2016-02-08T13:49:11.000Z</time>
      </trkpt>
      <trkpt lat="47.78408" lon="7.05811">
        <ele>399.084</ele>
        <time>2016-02-08T13:49:34.000Z</time>
      </trkpt>
      <trkpt lat="47.78384" lon="7.05809">
        <ele>399.084</ele>
        <time>2016-02-08T13:49:54.000Z</time>
      </trkpt>
      <trkpt lat="47.78373" lon="7.05814">
        <ele>401.007</ele>
        <time>2016-02-08T13:50:08.000Z</time>
      </trkpt>
      <trkpt lat="47.78339" lon="7.05803">
        <ele>406.775</ele>
        <time>2016-02-08T13:50:55.000Z</time>
      </trkpt>
      <trkpt lat="47.7833" lon="7.05794">
        <ele>407.256</ele>
        <time>2016-02-08T13:51:03.000Z</time>
      </trkpt>
      <trkpt lat="47.78319" lon="7.05779">
        <ele>406.775</ele>
        <time>2016-02-08T13:51:20.000Z</time>
      </trkpt>
      <trkpt lat="47.78304" lon="7.0577">
        <ele>399.084</ele>
        <time>2016-02-08T13:51:35.000Z</time>
      </trkpt>
      <trkpt lat="47.78297" lon="7.05763">
        <ele>388.51</ele>
        <time>2016-02-08T13:51:41.000Z</time>
      </trkpt>
      <trkpt lat="47.78284" lon="7.05753">
        <ele>381.3</ele>
        <time>2016-02-08T13:52:00.000Z</time>
      </trkpt>
      <trkpt lat="47.78249" lon="7.05724">
        <ele>381.3</ele>
        <time>2016-02-08T13:52:23.000Z</time>
      </trkpt>
      <trkpt lat="47.7823" lon="7.05733">
        <ele>381.3</ele>
        <time>2016-02-08T13:52:41.000Z</time>
      </trkpt>
      <trkpt lat="47.78226" lon="7.05744">
        <ele>411.582</ele>
        <time>2016-02-08T13:52:52.000Z</time>
      </trkpt>
      <trkpt lat="47.78234" lon="7.05763">
        <ele>440.902</ele>
        <time>2016-02-08T13:53:06.000Z</time>
      </trkpt>
      <trkpt lat="47.7824" lon="7.05776">
        <ele>440.902</ele>
        <time>2016-02-08T13:53:18.000Z</time>
      </trkpt>
      <trkpt lat="47.78231" lon="7.05788">
        <ele>440.902</ele>
        <time>2016-02-08T13:53:35.000Z</time>
      </trkpt>
      <trkpt lat="47.78224" lon="7.05787">
        <ele>436.576</ele>
        <time>2016-02-08T13:53:42.000Z</time>
      </trkpt>
      <trkpt lat="47.78224" lon="7.05789">
        <ele>422.637</ele>
        <time>2016-02-08T13:53:51.000Z</time>
      </trkpt>
      <trkpt lat="47.78216" lon="7.05793">
        <ele>422.637</ele>
        <time>2016-02-08T13:54:04.000Z</time>
      </trkpt>
      <trkpt lat="47.78199" lon="7.05805">
        <ele>422.637</ele>
        <time>2016-02-08T13:54:23.000Z</time>
      </trkpt>
      <trkpt lat="47.78197" lon="7.05824">
        <ele>428.405</ele>
        <time>2016-02-08T13:54:33.000Z</time>
      </trkpt>
      <trkpt lat="47.78205" lon="7.05831">
        <ele>430.327</ele>
        <time>2016-02-08T13:54:57.000Z</time>
      </trkpt>
      <trkpt lat="47.78215" lon="7.05828">
        <ele>436.095</ele>
        <time>2016-02-08T13:55:07.000Z</time>
      </trkpt>
      <trkpt lat="47.78225" lon="7.05815">
        <ele>446.189</ele>
        <time>2016-02-08T13:55:32.000Z</time>
      </trkpt>
      <trkpt lat="47.78215" lon="7.05807">
        <ele>436.095</ele>
        <time>2016-02-08T13:55:45.000Z</time>
      </trkpt>
    </trkseg>
  </trk>
</gpx>